Terminal Aerodrome Forecast
Issued by NWS Green Bay, WI

Home | Current Version | Previous Version | Graphics & Text | Print | Product List | Glossary On
Versions: 1 2 3 4 5 6 7 8 9 10 11 12 13 14 15 16 17 18 19 20 21 22 23 24 25 26 27 28
000
FTUS43 KGRB 282300
TAFGRB
TAF
KGRB 282328Z 2900/2924 19004KT P6SM SCT250
     FM290700 VRB03KT 4SM BR SCT250
     FM291300 33007KT 5SM BR SCT025 BKN060
     FM291600 35009G16KT P6SM VCSH SCT012 OVC025
      TEMPO 2918/2922 5SM -SHRA BR BKN012
     FM292200 02012G20KT P6SM -SHRA SCT012 OVC020=

USA.gov is the U.S. government's official web portal to all federal, state and local government web resources and services.